KAUG/AUG METAR and TAF weather

Enter ICAO airport designator
Station Type Date Time Source
KAUG METAR 2022/01/25 04:53 UTC NOAA

KAUG 250453Z AUTO 35003KT 1SM -SN BR VV011 M09/M12 A2992 RMK AO2 SLP139 P0003 T10941117


Station Type Date Time Source
KAUG Decoded METAR 2022/01/25 04:53 UTC NOAA

AUGUSTA STATE AIRPORT, ME, United States (KAUG) 44-19N 069-48W 109M
Jan 24, 2022 - 11:53 PM EST / 2022.01.25 0453 UTC
Wind: from the N (350 degrees) at 3 MPH (3 KT):0
Visibility: 1 mile(s):0
Sky conditions: obscured
Weather: light snow; mist
Precipitation last hour: 0.03 inches
Temperature: 15.1 F (-9.4 C)
Dew Point: 10.9 F (-11.7 C)
Relative Humidity: 83%
Pressure (altimeter): 29.92 in. Hg (1013 hPa)
ob: KAUG 250453Z AUTO 35003KT 1SM -SN BR VV011 M09/M12 A2992 RMK AO2 SLP139 P0003 T10941117
cycle: 5

Station Type Date Time Source
KAUG TAF 2022/01/25 04:46 UTC NOAA

TAF
AMD KAUG 250343Z 2504/2524 VRB03KT 2SM -SN BR OVC025
FM250600 00000KT 3/4SM -SN BR OVC008
FM251500 29005KT 1SM -SN BR BKN025
FM251900 30006KT 6SM BR SCT050

Example: see airport list